Time;durP1;ratioP1;P1;durP2;ratioP2;P2;SDS_P1;SDS_P2;PMS_P1;PMS_P2;Temp;Humidity;BMP_temperature;BMP_pressure;BME280_temperature;BME280_humidity;BME280_pressure;Samples;Min_cycle;Max_cycle;Signal;HPM_P1;HPM_P2
2023/03/04 00:00:20;;;;;;;;;;;;;;;2.24;79.20;99457.59;5048080;28;19925;-82
2023/03/04 00:02:45;;;;;;;;;;;;;;;2.14;79.33;99451.78;5061826;28;19992;-81
2023/03/04 00:05:10;;;;;;;;;;;;;;;2.43;79.00;99443.88;5038994;28;19925;-82
2023/03/04 00:07:35;;;;;;;;;;;;;;;2.52;78.43;99441.97;5026656;28;19921;-81
2023/03/04 00:10:01;;;;;;;;;;;;;;;2.62;77.72;99440.69;5035229;28;19935;-82
2023/03/04 00:12:26;;;;;;;;;;;;;;;2.64;77.81;99432.63;5056026;28;20315;-82
2023/03/04 00:14:51;;;;;;;;;;;;;;;2.64;78.07;99437.91;5060585;28;19925;-83
2023/03/04 00:17:17;;;;;;;;;;;;;;;2.59;77.80;99433.19;5030714;28;19923;-83
2023/03/04 00:19:42;;;;;;;;;;;;;;;2.16;79.36;99442.69;5055045;28;19928;-82
2023/03/04 00:22:07;;;;;;;;;;;;;;;2.48;78.58;99441.53;5072074;28;19931;-81
2023/03/04 00:24:33;;;;;;;;;;;;;;;2.17;79.78;99440.88;5037509;28;20291;-80
2023/03/04 00:26:59;;;;;;;;;;;;;;;2.25;79.23;99438.97;5064549;28;19924;-82
2023/03/04 00:29:24;;;;;;;;;;;;;;;2.34;79.43;99439.69;5066613;28;20376;-81
2023/03/04 00:31:49;;;;;;;;;;;;;;;2.21;79.04;99429.81;5047875;28;19924;-81
2023/03/04 00:34:15;;;;;;;;;;;;;;;2.14;79.67;99430.72;5046896;28;20389;-81
2023/03/04 00:36:43;;;;;;;;;;;;;;;2.26;79.60;99431.91;5044918;28;19975;-81
2023/03/04 00:39:08;;;;;;;;;;;;;;;1.96;79.76;99432.88;5050346;28;20412;-81
2023/03/04 00:41:33;;;;;;;;;;;;;;;2.35;79.15;99424.72;5048430;28;20035;-81
2023/03/04 00:43:59;;;;;;;;;;;;;;;2.46;78.64;99421.63;5062943;28;20285;-81
2023/03/04 00:46:24;;;;;;;;;;;;;;;2.28;79.09;99429.91;5048324;28;20395;-81
2023/03/04 00:48:49;;;;;;;;;;;;;;;2.37;78.67;99420.09;5053682;28;19952;-82
2023/03/04 00:51:14;;;;;;;;;;;;;;;2.08;79.21;99426.97;5047226;28;20384;-82
2023/03/04 00:53:39;;;;;;;;;;;;;;;2.18;79.78;99430.16;5052558;28;19925;-82
2023/03/04 00:56:05;;;;;;;;;;;;;;;1.91;79.87;99430.78;5042140;28;19927;-82
2023/03/04 00:58:30;;;;;;;;;;;;;;;1.68;81.25;99422.13;5050643;28;21289;-82
2023/03/04 01:00:55;;;;;;;;;;;;;;;2.07;80.13;99435.91;5050074;28;19926;-82
2023/03/04 01:03:21;;;;;;;;;;;;;;;2.13;79.57;99427.28;5051191;28;19925;-81
2023/03/04 01:05:46;;;;;;;;;;;;;;;2.36;79.15;99426.38;5047069;28;19925;-81
2023/03/04 01:08:11;;;;;;;;;;;;;;;2.06;80.01;99423.72;5044828;28;19929;-81
2023/03/04 01:10:36;;;;;;;;;;;;;;;2.26;79.51;99419.56;5066230;28;19959;-82
2023/03/04 01:13:02;;;;;;;;;;;;;;;2.44;78.77;99413.94;5051104;28;19921;-82
2023/03/04 01:15:27;;;;;;;;;;;;;;;2.40;78.31;99414.47;5056675;28;20327;-81
2023/03/04 01:17:52;;;;;;;;;;;;;;;2.15;79.49;99417.38;5065210;28;19920;-81
2023/03/04 01:20:18;;;;;;;;;;;;;;;2.10;79.69;99411.00;5063294;28;20007;-81
2023/03/04 01:22:43;;;;;;;;;;;;;;;2.28;79.29;99408.84;5055385;28;19920;-81
2023/03/04 01:25:09;;;;;;;;;;;;;;;2.16;79.33;99410.28;5034606;28;19947;-81
2023/03/04 01:27:34;;;;;;;;;;;;;;;1.64;80.27;99406.84;5070484;28;19951;-81
2023/03/04 01:29:59;;;;;;;;;;;;;;;2.26;79.74;99402.94;5053585;28;19921;-81
2023/03/04 01:32:25;;;;;;;;;;;;;;;2.10;80.05;99403.91;5065300;28;19928;-82
2023/03/04 01:34:50;;;;;;;;;;;;;;;2.07;79.88;99398.22;5040369;28;20372;-82
2023/03/04 01:37:15;;;;;;;;;;;;;;;2.18;79.79;99395.13;5053778;28;19982;-82
2023/03/04 01:39:40;;;;;;;;;;;;;;;1.96;80.11;99390.75;5051773;28;19935;-82
2023/03/04 01:42:12;;;;;;;;;;;;;;;2.16;79.32;99376.84;5049525;28;20446;-81
2023/03/04 01:44:37;;;;;;;;;;;;;;;2.15;79.54;99387.59;5049753;28;19955;-82
2023/03/04 01:47:02;;;;;;;;;;;;;;;1.80;79.92;99390.91;5048931;28;19948;-82
2023/03/04 01:49:28;;;;;;;;;;;;;;;2.16;79.56;99373.44;5030955;28;19929;-81
2023/03/04 01:51:53;;;;;;;;;;;;;;;2.07;80.14;99377.97;5045508;28;20653;-81
2023/03/04 01:54:19;;;;;;;;;;;;;;;2.06;80.02;99367.59;5046694;28;19990;-81
2023/03/04 01:56:46;;;;;;;;;;;;;;;2.05;79.86;99373.88;5050806;28;19924;-81
2023/03/04 01:59:13;;;;;;;;;;;;;;;2.05;80.05;99368.63;5043821;28;19916;-81
2023/03/04 02:01:39;;;;;;;;;;;;;;;2.05;79.86;99368.63;5055712;28;19925;-81
2023/03/04 02:04:04;;;;;;;;;;;;;;;2.28;79.60;99367.53;5049432;28;19935;-81
2023/03/04 02:06:30;;;;;;;;;;;;;;;2.35;79.20;99366.78;5042157;28;20653;-81
2023/03/04 02:08:56;;;;;;;;;;;;;;;2.45;78.95;99352.31;5048050;28;19917;-82
2023/03/04 02:11:21;;;;;;;;;;;;;;;2.39;78.65;99358.34;5062838;28;19921;-83
2023/03/04 02:13:47;;;;;;;;;;;;;;;2.20;79.57;99357.09;5066115;28;20023;-81
2023/03/04 02:16:12;;;;;;;;;;;;;;;2.17;79.54;99359.25;5052360;28;19920;-82
2023/03/04 02:18:37;;;;;;;;;;;;;;;2.05;79.67;99358.88;5056149;28;19920;-82
2023/03/04 02:21:12;;;;;;;;;;;;;;;2.29;79.75;99352.53;5054497;28;20020;-82
2023/03/04 02:23:44;;;;;;;;;;;;;;;2.34;79.43;99352.00;5063871;28;19947;-81
2023/03/04 02:26:12;;;;;;;;;;;;;;;2.28;79.50;99345.63;5055237;28;19917;-82
2023/03/04 02:28:38;;;;;;;;;;;;;;;2.31;79.16;99341.81;5053760;28;20277;-82
2023/03/04 02:31:03;;;;;;;;;;;;;;;2.32;79.34;99330.25;5070003;28;19927;-81
2023/03/04 02:33:28;;;;;;;;;;;;;;;2.32;79.49;99335.53;5052625;28;19928;-81
2023/03/04 02:35:54;;;;;;;;;;;;;;;2.41;79.03;99326.53;5053573;28;19928;-81
2023/03/04 02:38:20;;;;;;;;;;;;;;;2.22;79.37;99343.72;5059235;28;19979;-81
2023/03/04 02:40:47;;;;;;;;;;;;;;;2.38;79.08;99330.34;5065076;28;19916;-81
2023/03/04 02:43:12;;;;;;;;;;;;;;;2.18;79.27;99340.63;5046509;28;20054;-81
2023/03/04 02:45:45;;;;;;;;;;;;;;;2.39;79.26;99336.44;5051411;28;20026;-81
2023/03/04 02:48:11;;;;;;;;;;;;;;;2.41;78.96;99322.09;5050966;28;19990;-82
2023/03/04 02:50:39;;;;;;;;;;;;;;;2.33;79.39;99331.91;5067624;28;19917;-81
2023/03/04 02:53:05;;;;;;;;;;;;;;;2.34;78.93;99331.72;5053115;28;19920;-82
2023/03/04 02:55:31;;;;;;;;;;;;;;;2.32;79.00;99323.19;5062713;28;20016;-82
2023/03/04 02:57:56;;;;;;;;;;;;;;;2.37;79.12;99323.47;5066558;28;19917;-82
2023/03/04 03:00:21;;;;;;;;;;;;;;;2.25;79.25;99322.28;5033529;28;20009;-82
2023/03/04 03:02:47;;;;;;;;;;;;;;;2.15;79.17;99321.75;5045050;28;19932;-82
2023/03/04 03:05:13;;;;;;;;;;;;;;;2.30;80.23;99319.91;5063028;28;19935;-81
2023/03/04 03:07:38;;;;;;;;;;;;;;;2.19;79.61;99323.03;5048968;28;19935;-83
2023/03/04 03:10:03;;;;;;;;;;;;;;;2.06;80.01;99322.84;5065852;28;19921;-81
2023/03/04 03:12:29;;;;;;;;;;;;;;;2.36;79.63;99319.19;5047195;28;19951;-82
2023/03/04 03:14:54;;;;;;;;;;;;;;;2.38;79.13;99327.72;5064483;28;19936;-82
2023/03/04 03:17:19;;;;;;;;;;;;;;;2.40;79.15;99324.91;5046233;28;19925;-81
2023/03/04 03:19:44;;;;;;;;;;;;;;;2.31;79.16;99321.56;5051322;28;19929;-81
2023/03/04 03:22:09;;;;;;;;;;;;;;;2.49;78.87;99327.25;5059476;28;20028;-81
2023/03/04 03:24:35;;;;;;;;;;;;;;;2.44;79.07;99324.38;5055083;28;19959;-82
2023/03/04 03:27:00;;;;;;;;;;;;;;;2.46;78.82;99325.00;5054057;28;19928;-81
2023/03/04 03:29:26;;;;;;;;;;;;;;;2.46;79.16;99325.00;5049717;28;19962;-83
2023/03/04 03:31:51;;;;;;;;;;;;;;;2.51;79.03;99319.97;5049049;28;19925;-82
2023/03/04 03:34:16;;;;;;;;;;;;;;;2.35;79.15;99322.84;5042209;28;20021;-82
2023/03/04 03:36:41;;;;;;;;;;;;;;;2.27;79.77;99320.31;5050336;28;19916;-81
2023/03/04 03:39:06;;;;;;;;;;;;;;;2.28;79.29;99311.41;5053260;28;20019;-81
2023/03/04 03:41:32;;;;;;;;;;;;;;;2.54;78.75;99311.69;5064994;28;19925;-83
2023/03/04 03:43:57;;;;;;;;;;;;;;;2.59;78.53;99314.59;5067282;28;19940;-82
2023/03/04 03:46:22;;;;;;;;;;;;;;;2.43;78.44;99308.72;5047717;28;19921;-82
2023/03/04 03:48:47;;;;;;;;;;;;;;;2.21;79.62;99311.31;5053170;28;19925;-82
2023/03/04 03:51:13;;;;;;;;;;;;;;;2.38;79.44;99311.91;5056731;28;22831;-83
2023/03/04 03:53:38;;;;;;;;;;;;;;;2.42;79.10;99312.38;5041894;28;19925;-82
2023/03/04 03:56:03;;;;;;;;;;;;;;;2.19;79.16;99310.69;5045828;28;19924;-82
2023/03/04 03:58:29;;;;;;;;;;;;;;;2.28;79.48;99304.31;5040663;28;20279;-82
2023/03/04 04:00:54;;;;;;;;;;;;;;;2.54;79.32;99310.88;5059779;28;19917;-81
2023/03/04 04:03:19;;;;;;;;;;;;;;;2.43;79.07;99308.72;5049695;28;19925;-81
2023/03/04 04:05:44;;;;;;;;;;;;;;;2.33;79.65;99301.13;5053829;28;19920;-81
2023/03/04 04:08:12;;;;;;;;;;;;;;;2.26;79.76;99302.88;5053847;28;20028;-82
2023/03/04 04:10:37;;;;;;;;;;;;;;;2.33;79.33;99292.41;5042254;28;20298;-81
2023/03/04 04:13:02;;;;;;;;;;;;;;;2.38;78.87;99296.09;5030917;28;19921;-82
2023/03/04 04:15:27;;;;;;;;;;;;;;;2.60;78.86;99295.16;5049430;28;19921;-81
2023/03/04 04:17:53;;;;;;;;;;;;;;;2.17;79.75;99294.25;5046680;28;19982;-82
2023/03/04 04:20:18;;;;;;;;;;;;;;;2.47;79.10;99288.94;5052252;28;20271;-82
2023/03/04 04:22:43;;;;;;;;;;;;;;;2.54;78.81;99288.00;5064140;28;19932;-82
2023/03/04 04:25:09;;;;;;;;;;;;;;;2.58;78.39;99283.97;5069493;28;19966;-81
2023/03/04 04:27:34;;;;;;;;;;;;;;;2.65;78.25;99281.41;5050657;28;19924;-82
2023/03/04 04:30:00;;;;;;;;;;;;;;;2.31;79.41;99289.16;5054410;28;20362;-81
2023/03/04 04:32:25;;;;;;;;;;;;;;;2.34;79.20;99292.22;5060739;28;19916;-82
2023/03/04 04:34:50;;;;;;;;;;;;;;;2.38;79.45;99287.41;5039414;28;19929;-82
2023/03/04 04:37:15;;;;;;;;;;;;;;;2.25;79.19;99288.06;5070651;28;19931;-81
2023/03/04 04:39:41;;;;;;;;;;;;;;;2.36;79.17;99278.88;5051997;28;19999;-81
2023/03/04 04:42:06;;;;;;;;;;;;;;;2.29;79.79;99279.59;5067340;28;19933;-82
2023/03/04 04:44:31;;;;;;;;;;;;;;;2.60;79.21;99278.53;5051701;28;19932;-82
2023/03/04 04:46:56;;;;;;;;;;;;;;;2.33;79.37;99281.88;5070146;28;20359;-82
2023/03/04 04:49:22;;;;;;;;;;;;;;;2.52;78.90;99276.81;5050506;28;20338;-81
2023/03/04 04:51:47;;;;;;;;;;;;;;;2.49;78.84;99276.41;5065548;28;19924;-81
2023/03/04 04:54:13;;;;;;;;;;;;;;;2.44;79.23;99282.22;5054628;28;20449;-82
2023/03/04 04:56:38;;;;;;;;;;;;;;;2.42;79.06;99283.41;5053174;28;20010;-82
2023/03/04 04:59:04;;;;;;;;;;;;;;;2.59;78.78;99283.00;5051082;28;19966;-82
2023/03/04 05:01:30;;;;;;;;;;;;;;;2.32;79.31;99281.06;5052987;28;19925;-82
2023/03/04 05:03:55;;;;;;;;;;;;;;;2.57;78.95;99282.34;5073149;28;19928;-82
2023/03/04 05:06:22;;;;;;;;;;;;;;;2.40;78.95;99278.31;5050866;28;19929;-81
2023/03/04 05:08:47;;;;;;;;;;;;;;;2.32;79.95;99277.59;5050643;28;20382;-81
2023/03/04 05:11:13;;;;;;;;;;;;;;;2.56;78.99;99283.34;5067783;28;19917;-81
2023/03/04 05:13:38;;;;;;;;;;;;;;;2.63;78.86;99276.34;5048825;28;19972;-81
2023/03/04 05:16:03;;;;;;;;;;;;;;;2.61;78.90;99282.78;5062580;28;20019;-81
2023/03/04 05:18:29;;;;;;;;;;;;;;;2.60;78.87;99276.69;5033271;28;19935;-82
2023/03/04 05:20:56;;;;;;;;;;;;;;;2.62;78.65;99281.81;5052553;28;19923;-82
2023/03/04 05:23:21;;;;;;;;;;;;;;;2.56;79.05;99280.72;5051949;28;19921;-82
2023/03/04 05:25:47;;;;;;;;;;;;;;;2.40;78.96;99278.31;5053476;28;19916;-82
2023/03/04 05:28:12;;;;;;;;;;;;;;;2.36;79.49;99279.69;5052979;28;20323;-81
2023/03/04 05:30:38;;;;;;;;;;;;;;;2.70;78.91;99273.78;5054786;28;19971;-81
2023/03/04 05:33:04;;;;;;;;;;;;;;;2.53;79.11;99282.91;5061725;28;20257;-82
2023/03/04 05:35:29;;;;;;;;;;;;;;;2.64;78.72;99277.97;5063787;28;19978;-81
2023/03/04 05:37:54;;;;;;;;;;;;;;;2.48;79.05;99282.66;5064135;28;20390;-82
2023/03/04 05:40:20;;;;;;;;;;;;;;;2.48;79.27;99280.84;5051789;28;19936;-81
2023/03/04 05:42:45;;;;;;;;;;;;;;;2.70;78.89;99282.50;5033424;28;19924;-82
2023/03/04 05:45:10;;;;;;;;;;;;;;;2.57;78.89;99274.47;5048848;28;19929;-82
2023/03/04 05:47:35;;;;;;;;;;;;;;;2.42;79.29;99278.13;5059239;28;19955;-82
2023/03/04 05:50:01;;;;;;;;;;;;;;;2.60;79.20;99278.53;5050509;28;20377;-82
2023/03/04 05:52:26;;;;;;;;;;;;;;;2.60;79.25;99265.38;5051977;28;20386;-81
2023/03/04 05:54:51;;;;;;;;;;;;;;;2.63;79.04;99278.97;5056229;28;20964;-82
2023/03/04 05:57:16;;;;;;;;;;;;;;;2.59;79.29;99274.25;5042653;28;19927;-82
2023/03/04 05:59:42;;;;;;;;;;;;;;;2.56;79.35;99278.06;5031288;28;20363;-82
2023/03/04 06:02:07;;;;;;;;;;;;;;;2.59;79.15;99271.63;5048895;28;19933;-81
2023/03/04 06:04:32;;;;;;;;;;;;;;;2.48;79.54;99270.31;5044392;28;19978;-82
2023/03/04 06:06:57;;;;;;;;;;;;;;;2.66;79.09;99267.25;5047783;28;20005;-83
2023/03/04 06:09:23;;;;;;;;;;;;;;;2.29;79.93;99276.97;5047067;28;20047;-81
2023/03/04 06:11:48;;;;;;;;;;;;;;;2.50;79.53;99284.09;5050274;28;19921;-82
2023/03/04 06:14:13;;;;;;;;;;;;;;;2.48;79.67;99280.84;5045560;28;20416;-82
2023/03/04 06:16:38;;;;;;;;;;;;;;;2.57;79.12;99284.19;5040048;28;19920;-82
2023/03/04 06:19:04;;;;;;;;;;;;;;;2.59;79.27;99283.00;5053350;28;19917;-82
2023/03/04 06:21:29;;;;;;;;;;;;;;;2.56;79.40;99293.88;5052316;28;20027;-81
2023/03/04 06:23:54;;;;;;;;;;;;;;;2.62;79.37;99282.59;5051290;28;19921;-82
2023/03/04 06:26:19;;;;;;;;;;;;;;;2.69;78.96;99286.13;5041063;28;20299;-82
2023/03/04 06:28:45;;;;;;;;;;;;;;;2.57;79.47;99290.25;5055281;28;19977;-81
2023/03/04 06:31:11;;;;;;;;;;;;;;;2.65;79.13;99287.50;5054762;28;19968;-83
2023/03/04 06:33:36;;;;;;;;;;;;;;;2.57;79.51;99294.72;5053775;28;19928;-81
2023/03/04 06:36:02;;;;;;;;;;;;;;;2.50;79.77;99291.19;5052975;28;19920;-82
2023/03/04 06:38:27;;;;;;;;;;;;;;;2.60;79.82;99294.34;5065487;28;20431;-81
2023/03/04 06:40:53;;;;;;;;;;;;;;;2.76;79.20;99292.28;5046298;28;20387;-81
2023/03/04 06:43:18;;;;;;;;;;;;;;;2.54;79.61;99289.81;5053343;28;19925;-81
2023/03/04 06:45:43;;;;;;;;;;;;;;;2.77;79.16;99293.94;5058990;28;19917;-81
2023/03/04 06:48:09;;;;;;;;;;;;;;;2.68;79.24;99300.31;5059067;28;20070;-81
2023/03/04 06:50:34;;;;;;;;;;;;;;;2.67;79.65;99301.31;5032320;28;19920;-81
2023/03/04 06:52:59;;;;;;;;;;;;;;;2.52;79.94;99295.28;5047391;28;19928;-81
2023/03/04 06:55:24;;;;;;;;;;;;;;;2.76;79.38;99294.09;5063405;28;19928;-81
2023/03/04 06:57:50;;;;;;;;;;;;;;;2.66;79.54;99297.06;5030840;28;19988;-81
2023/03/04 07:00:16;;;;;;;;;;;;;;;2.72;79.93;99295.47;5048927;28;20065;-82
2023/03/04 07:02:41;;;;;;;;;;;;;;;2.68;79.89;99296.84;5050642;28;19926;-82
2023/03/04 07:05:08;;;;;;;;;;;;;;;2.66;79.88;99298.88;5061523;28;20026;-82
2023/03/04 07:07:33;;;;;;;;;;;;;;;2.79;79.46;99305.09;5062058;28;19921;-82
2023/03/04 07:09:58;;;;;;;;;;;;;;;2.75;79.78;99298.53;5044616;28;19929;-82
2023/03/04 07:12:23;;;;;;;;;;;;;;;2.77;79.52;99301.00;5063972;28;19921;-81
2023/03/04 07:14:49;;;;;;;;;;;;;;;2.98;79.34;99293.91;5052053;28;20019;-80
2023/03/04 07:17:14;;;;;;;;;;;;;;;2.90;79.30;99295.88;5053031;28;20655;-82
2023/03/04 07:19:40;;;;;;;;;;;;;;;2.93;79.10;99287.56;5056398;28;19924;-82
2023/03/04 07:22:06;;;;;;;;;;;;;;;2.94;79.26;99292.66;5032688;28;19933;-83
2023/03/04 07:24:31;;;;;;;;;;;;;;;2.95;79.07;99289.00;5066281;28;19917;-81
2023/03/04 07:26:56;;;;;;;;;;;;;;;2.53;80.83;99288.19;5051693;28;19928;-81
2023/03/04 07:29:21;;;;;;;;;;;;;;;2.86;79.67;99300.69;5052983;28;19921;-82
2023/03/04 07:31:46;;;;;;;;;;;;;;;2.93;79.44;99295.47;5051987;28;19929;-81
2023/03/04 07:34:13;;;;;;;;;;;;;;;3.14;78.81;99290.22;5032288;28;19921;-82
2023/03/04 07:36:38;;;;;;;;;;;;;;;3.07;79.05;99291.16;5052808;28;19924;-83
2023/03/04 07:39:04;;;;;;;;;;;;;;;3.08;78.58;99293.59;5044975;28;20300;-82
2023/03/04 07:41:29;;;;;;;;;;;;;;;3.16;79.29;99293.47;5030227;28;20015;-81
2023/03/04 07:43:55;;;;;;;;;;;;;;;3.20;78.98;99301.81;5052006;28;19917;-82
2023/03/04 07:46:21;;;;;;;;;;;;;;;3.17;79.34;99295.09;5048895;28;19928;-81
2023/03/04 07:48:46;;;;;;;;;;;;;;;3.24;79.02;99295.13;5049033;28;20389;-82
2023/03/04 07:51:13;;;;;;;;;;;;;;;3.14;79.59;99295.50;5046012;28;20299;-82
2023/03/04 07:53:39;;;;;;;;;;;;;;;3.33;78.62;99296.63;5046697;28;19924;-81
2023/03/04 07:56:06;;;;;;;;;;;;;;;3.07;79.98;99291.97;5047269;28;20066;-81
2023/03/04 07:58:31;;;;;;;;;;;;;;;3.23;79.39;99294.34;5047920;28;20309;-81
2023/03/04 08:00:57;;;;;;;;;;;;;;;3.27;79.18;99297.41;5048134;28;19921;-81
2023/03/04 08:03:22;;;;;;;;;;;;;;;3.38;78.89;99296.88;5065211;28;19925;-82
2023/03/04 08:05:47;;;;;;;;;;;;;;;3.39;79.12;99303.78;5061465;28;20403;-82
2023/03/04 08:08:12;;;;;;;;;;;;;;;3.42;78.78;99300.78;5061526;28;20312;-82
2023/03/04 08:10:38;;;;;;;;;;;;;;;3.48;79.50;99300.00;5040381;28;19939;-83
2023/03/04 08:13:04;;;;;;;;;;;;;;;3.45;79.33;99295.13;5037445;28;19921;-83
2023/03/04 08:15:31;;;;;;;;;;;;;;;3.35;79.77;99297.25;5043342;28;19928;-81
2023/03/04 08:17:56;;;;;;;;;;;;;;;3.50;79.55;99290.88;5058087;28;19924;-80
2023/03/04 08:20:22;;;;;;;;;;;;;;;3.45;79.47;99279.28;5046016;28;19929;-81
2023/03/04 08:22:47;;;;;;;;;;;;;;;3.69;78.69;99277.00;5026375;28;20384;-81
2023/03/04 08:25:12;;;;;;;;;;;;;;;3.59;78.90;99275.72;5054099;28;19936;-82
2023/03/04 08:27:37;;;;;;;;;;;;;;;3.45;79.61;99271.38;5037934;28;19921;-83
2023/03/04 08:30:03;;;;;;;;;;;;;;;3.57;78.99;99275.09;5048550;28;20003;-82
2023/03/04 08:32:29;;;;;;;;;;;;;;;3.48;79.40;99273.63;5049669;28;19975;-82
2023/03/04 08:34:55;;;;;;;;;;;;;;;3.71;78.79;99277.63;5076137;28;20380;-81
2023/03/04 08:37:21;;;;;;;;;;;;;;;3.57;79.34;99272.47;5041555;28;19931;-81
2023/03/04 08:39:46;;;;;;;;;;;;;;;3.51;79.15;99275.88;5048055;28;19928;-81
2023/03/04 08:42:11;;;;;;;;;;;;;;;3.68;78.52;99277.22;5063250;28;19925;-81
2023/03/04 08:44:36;;;;;;;;;;;;;;;3.86;78.32;99279.34;5047570;28;19917;-82
2023/03/04 08:47:02;;;;;;;;;;;;;;;3.79;78.84;99277.50;5032768;28;20030;-82
2023/03/04 08:49:27;;;;;;;;;;;;;;;3.66;79.88;99276.59;5044459;28;19921;-83
2023/03/04 08:51:52;;;;;;;;;;;;;;;3.75;79.70;99278.06;5046718;28;19921;-83
2023/03/04 08:54:17;;;;;;;;;;;;;;;3.81;79.33;99282.56;5048842;28;19925;-84
2023/03/04 08:56:42;;;;;;;;;;;;;;;3.83;78.87;99280.53;5049165;28;19916;-81
2023/03/04 08:59:08;;;;;;;;;;;;;;;3.82;79.41;99280.75;5050422;28;20392;-82
2023/03/04 09:01:33;;;;;;;;;;;;;;;3.93;78.57;99277.56;5034269;28;20388;-82
2023/03/04 09:03:58;;;;;;;;;;;;;;;3.83;79.19;99279.72;5047979;28;19920;-83
2023/03/04 09:06:23;;;;;;;;;;;;;;;3.87;79.54;99278.34;5047572;28;19920;-82
2023/03/04 09:08:49;;;;;;;;;;;;;;;3.83;79.23;99272.63;5052335;28;19940;-82
2023/03/04 09:11:14;;;;;;;;;;;;;;;3.83;80.00;99272.63;5043825;28;19932;-81
2023/03/04 09:13:39;;;;;;;;;;;;;;;3.86;79.99;99268.78;5048545;28;19923;-81
2023/03/04 09:16:09;;;;;;;;;;;;;;;3.87;79.96;99268.56;5038216;28;19921;-81
2023/03/04 09:18:35;;;;;;;;;;;;;;;3.90;79.75;99276.13;5052315;28;19963;-81
2023/03/04 09:21:00;;;;;;;;;;;;;;;3.92;80.07;99270.63;5051587;28;19921;-81
2023/03/04 09:23:25;;;;;;;;;;;;;;;3.93;80.28;99267.81;5046547;28;19929;-84
2023/03/04 09:25:51;;;;;;;;;;;;;;;3.91;79.95;99269.81;5051047;28;19929;-83
2023/03/04 09:28:17;;;;;;;;;;;;;;;3.86;80.91;99266.97;5051838;28;19927;-84
2023/03/04 09:30:42;;;;;;;;;;;;;;;3.80;81.38;99267.72;5054150;28;19917;-84
2023/03/04 09:33:08;;;;;;;;;;;;;;;3.88;81.12;99264.94;5056186;28;19959;-84
2023/03/04 09:35:33;;;;;;;;;;;;;;;4.02;80.48;99271.13;5072017;28;19921;-83
2023/03/04 09:37:58;;;;;;;;;;;;;;;4.02;80.47;99266.63;5045567;28;20376;-83
2023/03/04 09:40:29;;;;;;;;;;;;;;;4.04;79.91;99269.88;5051875;28;19963;-84
2023/03/04 09:42:58;;;;;;;;;;;;;;;4.04;80.16;99259.31;5051896;28;20388;-83
2023/03/04 09:45:33;;;;;;;;;;;;;;;4.17;80.55;99258.56;5072123;28;19925;-83
2023/03/04 09:47:59;;;;;;;;;;;;;;;4.21;80.49;99265.91;5054949;28;19964;-84
2023/03/04 09:50:25;;;;;;;;;;;;;;;4.12;80.74;99263.63;5051580;28;19920;-83
2023/03/04 09:52:50;;;;;;;;;;;;;;;4.18;80.56;99258.38;5055773;28;19936;-84
2023/03/04 09:55:30;;;;;;;;;;;;;;;4.36;80.12;99257.81;5057196;28;19916;-84
2023/03/04 09:58:14;;;;;;;;;;;;;;;4.28;79.71;99256.16;5056181;28;19952;-84
2023/03/04 10:00:39;;;;;;;;;;;;;;;4.20;80.66;99258.97;5049947;28;19960;-83
2023/03/04 10:03:04;;;;;;;;;;;;;;;4.24;80.69;99268.13;5054162;28;19964;-83
2023/03/04 10:05:35;;;;;;;;;;;;;;;4.28;80.80;99263.28;5066764;28;20015;-84
2023/03/04 10:08:19;;;;;;;;;;;;;;;4.23;80.83;99257.78;5041841;28;19936;-84
2023/03/04 10:10:45;;;;;;;;;;;;;;;4.30;81.41;99263.91;5046660;28;19924;-82
2023/03/04 10:13:15;;;;;;;;;;;;;;;4.27;81.26;99262.47;5064453;28;19966;-82
2023/03/04 10:15:43;;;;;;;;;;;;;;;4.43;80.43;99263.94;5063165;28;19923;-83
2023/03/04 10:18:11;;;;;;;;;;;;;;;4.38;80.75;99266.38;5050938;28;19951;-83
2023/03/04 10:20:43;;;;;;;;;;;;;;;4.38;80.38;99261.09;5050583;28;19917;-82
2023/03/04 10:23:10;;;;;;;;;;;;;;;4.26;81.22;99265.31;5067046;28;19925;-83
2023/03/04 10:25:37;;;;;;;;;;;;;;;4.40;80.51;99265.16;5049680;28;19916;-83
2023/03/04 10:28:06;;;;;;;;;;;;;;;4.44;80.96;99261.09;5057213;28;19946;-83
2023/03/04 10:30:46;;;;;;;;;;;;;;;4.34;80.83;99260.69;5065877;28;19928;-82
2023/03/04 10:33:12;;;;;;;;;;;;;;;4.40;81.23;99265.16;5073457;28;19963;-83
2023/03/04 10:35:38;;;;;;;;;;;;;;;4.35;80.81;99257.00;5053271;28;20007;-84
2023/03/04 10:38:03;;;;;;;;;;;;;;;4.32;81.47;99262.72;5056403;28;20633;-83
2023/03/04 10:40:36;;;;;;;;;;;;;;;4.33;80.75;99255.56;5035356;28;20369;-84
2023/03/04 10:43:06;;;;;;;;;;;;;;;4.37;81.06;99264.72;5045974;28;20299;-83
2023/03/04 10:45:34;;;;;;;;;;;;;;;4.32;80.70;99246.84;5063911;28;19932;-83
2023/03/04 10:48:01;;;;;;;;;;;;;;;4.42;80.79;99244.63;5050239;28;19921;-83
2023/03/04 10:50:27;;;;;;;;;;;;;;;4.39;80.60;99250.31;5046490;28;20531;-83
2023/03/04 10:52:54;;;;;;;;;;;;;;;4.36;81.30;99253.38;5052581;28;20340;-82
2023/03/04 10:55:26;;;;;;;;;;;;;;;4.43;80.14;99248.09;5051745;28;19928;-82
2023/03/04 10:57:53;;;;;;;;;;;;;;;4.41;80.69;99250.13;5066099;28;19965;-83
2023/03/04 11:00:27;;;;;;;;;;;;;;;4.40;81.29;99251.13;5049997;28;19917;-83
2023/03/04 11:02:52;;;;;;;;;;;;;;;4.38;81.46;99242.59;5063474;28;19920;-82
2023/03/04 11:05:17;;;;;;;;;;;;;;;4.48;80.83;99238.53;5064432;28;20090;-84
2023/03/04 11:07:53;;;;;;;;;;;;;;;4.62;80.17;99239.38;5050593;28;19972;-82
2023/03/04 11:10:21;;;;;;;;;;;;;;;4.53;81.00;99243.22;5053054;28;20017;-83
2023/03/04 11:12:54;;;;;;;;;;;;;;;4.56;80.64;99233.06;5049869;28;19999;-83
2023/03/04 11:15:25;;;;;;;;;;;;;;;4.55;80.56;99234.09;5040716;28;21177;-84
2023/03/04 11:17:53;;;;;;;;;;;;;;;4.59;81.27;99242.44;5044545;28;20049;-82
2023/03/04 11:20:24;;;;;;;;;;;;;;;4.74;79.25;99245.72;5044804;28;20373;-83
2023/03/04 11:22:49;;;;;;;;;;;;;;;4.71;80.17;99254.06;5035457;28;19928;-83
2023/03/04 11:25:34;;;;;;;;;;;;;;;4.71;80.12;99232.91;5048248;28;19928;-84
2023/03/04 11:28:15;;;;;;;;;;;;;;;4.69;79.62;99237.59;5042428;28;20323;-82
2023/03/04 11:30:42;;;;;;;;;;;;;;;4.80;79.34;99233.53;5045636;28;19917;-82
2023/03/04 11:33:13;;;;;;;;;;;;;;;4.80;79.85;99237.00;5043697;28;19921;-83
2023/03/04 11:35:47;;;;;;;;;;;;;;;4.46;81.85;99229.19;5062275;28;19967;-82
2023/03/04 11:38:12;;;;;;;;;;;;;;;4.82;79.53;99231.50;5041682;28;19939;-83
2023/03/04 11:41:04;;;;;;;;;;;;;;;4.62;80.83;99231.47;5064285;28;20383;-83
2023/03/04 11:43:29;;;;;;;;;;;;;;;4.74;81.41;99226.41;5022277;28;19975;-83
2023/03/04 11:46:06;;;;;;;;;;;;;;;4.80;81.22;99228.25;5052056;28;19917;-82
2023/03/04 11:49:10;;;;;;;;;;;;;;;4.70;82.13;99225.16;5066946;28;19917;-83
2023/03/04 11:51:35;;;;;;;;;;;;;;;4.79;81.57;99229.25;4986195;28;19921;-83
2023/03/04 11:54:09;;;;;;;;;;;;;;;4.74;81.68;99223.75;4982808;28;19965;-82
2023/03/04 11:56:40;;;;;;;;;;;;;;;4.77;81.46;99223.34;5016212;28;19973;-83
2023/03/04 11:59:24;;;;;;;;;;;;;;;4.65;82.19;99219.69;5063890;28;20348;-82
2023/03/04 12:01:49;;;;;;;;;;;;;;;4.50;82.24;99211.91;5051062;28;19923;-83
2023/03/04 12:04:33;;;;;;;;;;;;;;;4.65;81.98;99206.47;5069211;28;19916;-83
2023/03/04 12:07:08;;;;;;;;;;;;;;;4.72;82.02;99202.78;5049165;28;19917;-83
2023/03/04 12:10:09;;;;;;;;;;;;;;;4.67;82.10;99193.84;5049302;28;20024;-82
2023/03/04 12:12:53;;;;;;;;;;;;;;;4.84;81.58;99197.72;4965883;28;19917;-84
2023/03/04 12:15:30;;;;;;;;;;;;;;;4.87;82.28;99192.03;5044165;28;19920;-83
2023/03/04 12:18:10;;;;;;;;;;;;;;;4.68;82.56;99192.81;5064938;28;19944;-84
2023/03/04 12:20:56;;;;;;;;;;;;;;;4.64;82.61;99183.66;5053639;28;20052;-83
2023/03/04 12:23:32;;;;;;;;;;;;;;;4.60;82.67;99179.81;5047425;28;19924;-82
2023/03/04 12:25:57;;;;;;;;;;;;;;;4.60;83.58;99180.63;5059120;28;19921;-83
2023/03/04 12:28:41;;;;;;;;;;;;;;;4.41;84.57;99176.94;5051354;28;19988;-83
2023/03/04 12:31:10;;;;;;;;;;;;;;;4.59;83.79;99186.13;5051685;28;20367;-83
2023/03/04 12:33:38;;;;;;;;;;;;;;;4.61;83.01;99174.31;5053081;28;19916;-83
2023/03/04 12:36:12;;;;;;;;;;;;;;;4.54;85.01;99170.88;5051848;28;19925;-82
2023/03/04 12:38:44;;;;;;;;;;;;;;;4.51;84.49;99171.25;5069403;28;19925;-83
2023/03/04 12:41:22;;;;;;;;;;;;;;;4.69;84.07;99158.28;5069313;28;20296;-82
2023/03/04 12:43:50;;;;;;;;;;;;;;;4.68;83.76;99169.84;5044718;28;19928;-81
2023/03/04 12:46:15;;;;;;;;;;;;;;;4.71;83.81;99168.63;5070175;28;19920;-81
2023/03/04 12:48:44;;;;;;;;;;;;;;;4.77;83.94;99162.53;5054339;28;19986;-82
2023/03/04 12:51:12;;;;;;;;;;;;;;;4.82;84.41;99150.34;5054886;28;19917;-82
2023/03/04 12:53:55;;;;;;;;;;;;;;;4.81;84.19;99147.88;5069679;28;19917;-83
2023/03/04 12:56:20;;;;;;;;;;;;;;;4.78;83.43;99153.59;5055310;28;19928;-83